Time;durP1;ratioP1;P1;durP2;ratioP2;P2;SDS_P1;SDS_P2;PMS_P1;PMS_P2;Temp;Humidity;BMP_temperature;BMP_pressure;BME280_temperature;BME280_humidity;BME280_pressure;Samples;Min_cycle;Max_cycle;Signal;HPM_P1;HPM_P2
2023/11/08 00:01:47;;;;;;;70.45;12.02;;;11.70;92.70;;;;;;5087496;28;20033;-58
2023/11/08 00:04:13;;;;;;;74.10;11.65;;;11.70;92.70;;;;;;5087403;28;20020;-58
2023/11/08 00:06:39;;;;;;;52.72;10.65;;;11.70;92.70;;;;;;5087137;28;20072;-58
2023/11/08 00:09:05;;;;;;;56.17;10.13;;;11.60;93.00;;;;;;5087355;28;20039;-58
2023/11/08 00:11:32;;;;;;;54.92;11.38;;;11.60;92.70;;;;;;5087179;28;20020;-58
2023/11/08 00:13:57;;;;;;;56.60;10.57;;;11.60;92.70;;;;;;5087165;28;20021;-58
2023/11/08 00:16:23;;;;;;;55.28;11.20;;;11.50;92.70;;;;;;5069142;28;20062;-58
2023/11/08 00:18:48;;;;;;;65.50;10.98;;;11.60;92.70;;;;;;5069241;28;20048;-58
2023/11/08 00:21:14;;;;;;;53.83;10.25;;;11.50;92.70;;;;;;5069060;28;20031;-58
2023/11/08 00:23:40;;;;;;;45.78;8.82;;;11.50;92.80;;;;;;5087145;28;20033;-58
2023/11/08 00:26:06;;;;;;;46.40;9.50;;;11.50;92.80;;;;;;5086693;28;20070;-58
2023/11/08 00:28:32;;;;;;;57.95;10.45;;;11.40;92.80;;;;;;5087092;28;20036;-58
2023/11/08 00:30:58;;;;;;;39.13;9.00;;;11.50;93.10;;;;;;5068859;28;20032;-58
2023/11/08 00:33:24;;;;;;;46.22;9.25;;;11.50;92.80;;;;;;5086916;28;20036;-58
2023/11/08 00:35:50;;;;;;;39.10;8.13;;;11.40;92.80;;;;;;5069018;28;20025;-58
2023/11/08 00:38:16;;;;;;;34.00;8.15;;;11.40;92.80;;;;;;5086433;28;20128;-58
2023/11/08 00:40:41;;;;;;;54.70;8.13;;;11.40;92.70;;;;;;5068874;28;20029;-58
2023/11/08 00:43:07;;;;;;;33.95;8.63;;;11.40;92.70;;;;;;5086835;28;20028;-58
2023/11/08 00:45:33;;;;;;;41.33;7.85;;;11.40;92.70;;;;;;5086719;28;20104;-58
2023/11/08 00:48:01;;;;;;;43.25;8.90;;;11.40;92.70;;;;;;5086662;28;20082;-57
2023/11/08 00:50:29;;;;;;;41.83;7.57;;;11.40;92.70;;;;;;5086622;28;20104;-58
2023/11/08 00:53:00;;;;;;;41.00;7.85;;;11.40;92.70;;;;;;5086880;28;20033;-58
2023/11/08 00:55:26;;;;;;;42.00;6.43;;;11.30;92.70;;;;;;5086657;28;20032;-58
2023/11/08 00:57:52;;;;;;;34.17;7.30;;;11.40;92.80;;;;;;5086388;28;20111;-58
2023/11/08 01:00:18;;;;;;;39.70;8.02;;;11.40;92.70;;;;;;5086553;28;20052;-58
2023/11/08 01:02:44;;;;;;;38.45;7.55;;;11.30;92.70;;;;;;5086400;28;20115;-58
2023/11/08 01:05:10;;;;;;;31.15;6.75;;;11.30;92.60;;;;;;5086241;28;20032;-57
2023/11/08 01:07:36;;;;;;;37.05;6.55;;;11.30;92.70;;;;;;5086514;28;20028;-58
2023/11/08 01:10:02;;;;;;;28.10;6.63;;;11.30;92.70;;;;;;5086239;28;20029;-58
2023/11/08 01:12:27;;;;;;;34.45;6.63;;;11.30;92.70;;;;;;5068365;28;20036;-58
2023/11/08 01:14:53;;;;;;;42.75;7.07;;;11.30;92.70;;;;;;5086572;28;20034;-57
2023/11/08 01:17:19;;;;;;;25.63;6.22;;;11.30;92.70;;;;;;5068365;28;20062;-58
2023/11/08 01:19:44;;;;;;;22.17;5.30;;;11.30;92.70;;;;;;5086019;28;20097;-58
2023/11/08 01:22:11;;;;;;;25.85;5.15;;;11.30;92.60;;;;;;5085910;28;20036;-57
2023/11/08 01:24:38;;;;;;;28.40;5.43;;;11.20;92.60;;;;;;5068624;28;20029;-58
2023/11/08 01:27:04;;;;;;;25.73;5.93;;;11.30;92.60;;;;;;5086014;28;20092;-58
2023/11/08 01:29:30;;;;;;;23.40;5.72;;;11.20;92.60;;;;;;5068473;28;20036;-57
2023/11/08 01:31:56;;;;;;;18.85;5.45;;;11.20;92.60;;;;;;5086127;28;20072;-58
2023/11/08 01:34:21;;;;;;;29.58;5.03;;;11.20;92.60;;;;;;5086004;28;20046;-58
2023/11/08 01:36:48;;;;;;;23.02;5.72;;;11.20;92.60;;;;;;5067896;28;20115;-57
2023/11/08 01:39:13;;;;;;;26.95;5.50;;;11.20;92.60;;;;;;5086067;28;20037;-58
2023/11/08 01:41:44;;;;;;;28.30;5.65;;;11.20;92.60;;;;;;5085894;28;20027;-58
2023/11/08 01:44:11;;;;;;;35.33;6.05;;;11.20;92.60;;;;;;5068978;28;20091;-58
2023/11/08 01:46:37;;;;;;;25.73;5.60;;;11.20;92.60;;;;;;5067986;28;20480;-58
2023/11/08 01:49:03;;;;;;;22.92;4.85;;;11.10;92.50;;;;;;5069357;28;20024;-58
2023/11/08 01:51:28;;;;;;;23.38;5.03;;;11.10;92.60;;;;;;5055466;28;20020;-58
2023/11/08 01:53:54;;;;;;;20.45;4.63;;;11.10;92.60;;;;;;5055525;28;20023;-58
2023/11/08 01:56:20;;;;;;;29.13;5.45;;;11.10;92.60;;;;;;5089870;28;20028;-58
2023/11/08 01:58:46;;;;;;;14.68;4.60;;;11.10;92.60;;;;;;5071850;28;20480;-58
2023/11/08 02:01:12;;;;;;;21.45;5.03;;;11.00;92.60;;;;;;5071704;28;20031;-58
2023/11/08 02:03:38;;;;;;;24.92;4.68;;;11.10;92.60;;;;;;5089814;28;20070;-58
2023/11/08 02:06:04;;;;;;;21.20;4.45;;;11.10;92.60;;;;;;5089708;28;20084;-58
2023/11/08 02:08:30;;;;;;;21.67;4.05;;;11.10;92.60;;;;;;5089745;28;20058;-57
2023/11/08 02:10:57;;;;;;;23.90;4.85;;;11.00;92.60;;;;;;5089542;28;20025;-58
2023/11/08 02:13:24;;;;;;;17.10;4.40;;;11.00;92.60;;;;;;5071647;28;20029;-58
2023/11/08 02:15:49;;;;;;;21.25;4.80;;;11.00;92.60;;;;;;5071593;28;20028;-58
2023/11/08 02:18:15;;;;;;;16.30;3.90;;;11.00;92.60;;;;;;5071409;28;20029;-57
2023/11/08 02:20:41;;;;;;;15.90;3.50;;;11.00;92.70;;;;;;5089251;28;20029;-57
2023/11/08 02:23:07;;;;;;;14.75;3.78;;;11.00;92.70;;;;;;5089318;28;20052;-57
2023/11/08 02:25:32;;;;;;;19.90;3.58;;;11.00;92.70;;;;;;5089466;28;20016;-58
2023/11/08 02:27:58;;;;;;;17.95;3.70;;;11.00;92.70;;;;;;5089379;28;20059;-58
2023/11/08 02:30:24;;;;;;;20.92;4.18;;;10.90;92.60;;;;;;5089280;28;20084;-57
2023/11/08 02:32:50;;;;;;;15.43;3.53;;;10.90;92.70;;;;;;5089265;28;20523;-58
2023/11/08 02:35:16;;;;;;;17.45;4.07;;;10.90;92.70;;;;;;5089036;28;20020;-58
2023/11/08 02:37:43;;;;;;;14.38;4.05;;;10.90;92.70;;;;;;5089120;28;20097;-58
2023/11/08 02:40:09;;;;;;;15.20;3.92;;;10.90;92.70;;;;;;5071282;28;20036;-58
2023/11/08 02:42:34;;;;;;;14.45;3.30;;;10.90;92.70;;;;;;5070978;28;20036;-56
2023/11/08 02:45:00;;;;;;;11.60;3.72;;;10.90;92.70;;;;;;5088996;28;20027;-58
2023/11/08 02:47:25;;;;;;;17.98;3.28;;;10.80;92.70;;;;;;5088890;28;20060;-58
2023/11/08 02:49:51;;;;;;;17.52;3.10;;;10.80;92.70;;;;;;5088711;28;20058;-58
2023/11/08 02:52:17;;;;;;;9.48;2.50;;;10.80;92.80;;;;;;5070852;28;20119;-58
2023/11/08 02:54:42;;;;;;;10.73;3.20;;;10.80;92.70;;;;;;5088829;28;20056;-58
2023/11/08 02:57:08;;;;;;;14.90;3.28;;;10.80;92.80;;;;;;5088769;28;20024;-58
2023/11/08 02:59:36;;;;;;;14.05;2.63;;;10.80;92.80;;;;;;5087970;28;20037;-57
2023/11/08 03:02:03;;;;;;;8.48;3.03;;;10.70;92.80;;;;;;5070867;28;20035;-58
2023/11/08 03:04:31;;;;;;;15.70;2.80;;;10.70;92.80;;;;;;5089073;28;20460;-58
2023/11/08 03:06:56;;;;;;;12.18;2.85;;;10.70;92.80;;;;;;5088852;28;20033;-58
2023/11/08 03:09:22;;;;;;;10.40;2.85;;;10.70;92.90;;;;;;5088626;28;20084;-57
2023/11/08 03:11:48;;;;;;;14.25;2.90;;;10.70;92.90;;;;;;5088449;28;20034;-58
2023/11/08 03:14:14;;;;;;;12.70;2.80;;;10.70;92.90;;;;;;5088432;28;20050;-58
2023/11/08 03:16:41;;;;;;;8.48;2.60;;;10.70;93.20;;;;;;5088391;28;20526;-57
2023/11/08 03:19:09;;;;;;;8.77;2.50;;;10.70;92.90;;;;;;5088201;28;20032;-58
2023/11/08 03:21:35;;;;;;;11.27;2.80;;;10.70;92.90;;;;;;5088107;28;20024;-57
2023/11/08 03:24:00;;;;;;;13.10;2.78;;;10.70;92.90;;;;;;5088330;28;20021;-57
2023/11/08 03:26:26;;;;;;;9.25;2.90;;;10.70;92.80;;;;;;5088085;28;20099;-57
2023/11/08 03:28:52;;;;;;;12.38;2.53;;;10.70;92.80;;;;;;5088199;28;20044;-58
2023/11/08 03:31:18;;;;;;;10.55;2.50;;;10.70;92.80;;;;;;5088171;28;20021;-58
2023/11/08 03:33:43;;;;;;;8.50;2.90;;;10.60;92.80;;;;;;5088136;28;20150;-58
2023/11/08 03:36:09;;;;;;;13.20;2.65;;;10.60;92.90;;;;;;5088070;28;20102;-57
2023/11/08 03:38:34;;;;;;;6.40;2.10;;;10.60;92.90;;;;;;5088140;28;20111;-57
2023/11/08 03:41:01;;;;;;;10.55;2.63;;;10.60;92.90;;;;;;5087852;28;20036;-58
2023/11/08 03:43:26;;;;;;;9.73;2.95;;;10.60;93.00;;;;;;5087898;28;20103;-57
2023/11/08 03:45:52;;;;;;;5.30;2.30;;;10.60;93.00;;;;;;5087829;28;20530;-57
2023/11/08 03:48:17;;;;;;;5.82;2.03;;;10.50;93.00;;;;;;5087727;28;20029;-58
2023/11/08 03:50:43;;;;;;;9.32;2.53;;;10.60;93.10;;;;;;5087440;28;20055;-58
2023/11/08 03:53:09;;;;;;;10.70;2.35;;;10.50;93.00;;;;;;5087621;28;20029;-58
2023/11/08 03:55:35;;;;;;;7.05;2.08;;;10.50;93.00;;;;;;5087552;28;20108;-58
2023/11/08 03:58:01;;;;;;;5.88;2.20;;;10.50;93.00;;;;;;5087660;28;20032;-57
2023/11/08 04:00:27;;;;;;;6.75;2.08;;;10.50;93.10;;;;;;5087589;28;20038;-58
2023/11/08 04:02:53;;;;;;;7.68;2.22;;;10.40;93.10;;;;;;5069188;28;20028;-57
2023/11/08 04:05:18;;;;;;;7.10;2.67;;;10.40;93.10;;;;;;5069533;28;20021;-57
2023/11/08 04:07:44;;;;;;;9.57;2.15;;;10.40;93.00;;;;;;5087379;28;20358;-58
2023/11/08 04:10:10;;;;;;;3.45;1.42;;;10.40;93.00;;;;;;5087328;28;20088;-57
2023/11/08 04:12:37;;;;;;;8.07;2.00;;;10.40;93.00;;;;;;5068465;28;20055;-57
2023/11/08 04:15:04;;;;;;;6.65;2.20;;;10.40;93.10;;;;;;5069512;28;20033;-58
2023/11/08 04:17:29;;;;;;;8.45;2.28;;;10.40;93.10;;;;;;5087048;28;20028;-57
2023/11/08 04:19:55;;;;;;;4.72;1.90;;;10.40;93.10;;;;;;5087005;28;20086;-57
2023/11/08 04:22:21;;;;;;;7.68;2.20;;;10.40;93.20;;;;;;5086971;28;20033;-58
2023/11/08 04:24:47;;;;;;;5.20;1.75;;;10.40;93.20;;;;;;5086996;28;20028;-58
2023/11/08 04:27:12;;;;;;;6.22;1.63;;;10.40;93.20;;;;;;5086891;28;20033;-58
2023/11/08 04:29:38;;;;;;;11.80;2.13;;;10.40;93.30;;;;;;5086926;28;20032;-57
2023/11/08 04:32:05;;;;;;;5.68;2.33;;;10.40;93.30;;;;;;5068782;28;20096;-58
2023/11/08 04:34:30;;;;;;;8.55;2.33;;;10.40;93.40;;;;;;5086908;28;20025;-58
2023/11/08 04:36:56;;;;;;;9.57;2.30;;;10.40;93.40;;;;;;5068723;28;20056;-58
2023/11/08 04:39:22;;;;;;;9.02;2.25;;;10.40;93.50;;;;;;5087687;28;20036;-57
2023/11/08 04:41:51;;;;;;;8.93;2.38;;;10.40;93.60;;;;;;5086715;28;20514;-58
2023/11/08 04:44:17;;;;;;;8.80;2.60;;;10.30;93.70;;;;;;5069208;28;20028;-57
2023/11/08 04:46:42;;;;;;;8.35;2.75;;;10.30;93.70;;;;;;5068553;28;20025;-57
2023/11/08 04:49:09;;;;;;;8.98;2.80;;;10.40;93.70;;;;;;5086782;28;20029;-58
2023/11/08 04:51:34;;;;;;;7.93;2.03;;;10.30;93.70;;;;;;5086618;28;20020;-58
2023/11/08 04:54:00;;;;;;;6.70;2.10;;;10.40;93.70;;;;;;5086489;28;20013;-58
2023/11/08 04:56:25;;;;;;;7.68;2.22;;;10.30;93.90;;;;;;5086467;28;20025;-57
2023/11/08 04:58:51;;;;;;;7.78;2.40;;;10.30;93.70;;;;;;5086639;28;20074;-57
2023/11/08 05:01:18;;;;;;;7.97;2.42;;;10.30;93.70;;;;;;5086314;28;20031;-58
2023/11/08 05:03:44;;;;;;;15.60;2.83;;;10.30;93.70;;;;;;5086493;28;20036;-57
2023/11/08 05:06:10;;;;;;;7.05;2.65;;;10.30;93.70;;;;;;5086358;28;20084;-57
2023/11/08 05:08:35;;;;;;;13.15;2.42;;;10.30;93.70;;;;;;5086463;28;20499;-58
2023/11/08 05:11:01;;;;;;;10.20;2.22;;;10.30;93.80;;;;;;5086377;28;20453;-57
2023/11/08 05:13:26;;;;;;;8.07;2.25;;;10.20;93.80;;;;;;5086303;28;20069;-57
2023/11/08 05:15:52;;;;;;;5.28;2.08;;;10.30;94.10;;;;;;5086217;28;20453;-57
2023/11/08 05:18:17;;;;;;;4.47;1.92;;;10.30;94.10;;;;;;5086298;28;20385;-58
2023/11/08 05:20:43;;;;;;;9.68;2.40;;;10.20;93.80;;;;;;5086078;28;20074;-57
2023/11/08 05:23:10;;;;;;;7.78;2.20;;;10.20;93.90;;;;;;5086006;28;20029;-58
2023/11/08 05:25:39;;;;;;;6.30;2.33;;;10.20;93.90;;;;;;5086165;28;20028;-57
2023/11/08 05:28:06;;;;;;;9.65;2.60;;;10.20;93.90;;;;;;5086193;28;20028;-57
2023/11/08 05:30:32;;;;;;;11.20;2.72;;;10.20;93.90;;;;;;5084188;28;20024;-57
2023/11/08 05:32:57;;;;;;;16.13;2.95;;;10.20;93.90;;;;;;5068131;28;20044;-58
2023/11/08 05:35:23;;;;;;;21.60;3.97;;;10.20;93.90;;;;;;5086428;28;20024;-54
2023/11/08 05:37:50;;;;;;;16.30;4.05;;;10.20;93.80;;;;;;5086126;28;20530;-54
2023/11/08 05:40:16;;;;;;;37.30;4.85;;;10.20;94.10;;;;;;5085645;28;20023;-54
2023/11/08 05:42:42;;;;;;;18.45;4.35;;;10.20;93.80;;;;;;5085949;28;20405;-54
2023/11/08 05:45:08;;;;;;;42.08;6.38;;;10.20;93.80;;;;;;5085982;28;20021;-54
2023/11/08 05:47:34;;;;;;;26.50;5.55;;;10.20;93.80;;;;;;5085856;28;20229;-53
2023/11/08 05:50:05;;;;;;;83.00;10.93;;;10.20;93.80;;;;;;5085958;28;20024;-54
2023/11/08 05:52:30;;;;;;;85.47;11.18;;;10.20;93.90;;;;;;5085976;28;20028;-54
2023/11/08 05:54:56;;;;;;;50.38;8.02;;;10.20;93.90;;;;;;5086006;28;20051;-54
2023/11/08 05:57:21;;;;;;;66.60;8.30;;;10.20;94.20;;;;;;5085858;28;20486;-54
2023/11/08 05:59:47;;;;;;;60.22;7.88;;;10.10;93.90;;;;;;5086219;28;20035;-54
2023/11/08 06:02:12;;;;;;;60.60;8.07;;;10.10;93.80;;;;;;5068003;28;20053;-54
2023/11/08 06:04:38;;;;;;;43.45;7.03;;;10.20;93.90;;;;;;5068141;28;20080;-54
2023/11/08 06:07:04;;;;;;;58.22;7.88;;;10.10;93.80;;;;;;5086201;28;20043;-53
2023/11/08 06:09:30;;;;;;;41.38;6.93;;;10.10;93.80;;;;;;5086028;28;20059;-54
2023/11/08 06:11:55;;;;;;;44.00;7.47;;;10.10;93.80;;;;;;5086043;28;20037;-53
2023/11/08 06:14:21;;;;;;;62.38;8.10;;;10.10;93.80;;;;;;5085334;28;20103;-53
2023/11/08 06:16:47;;;;;;;45.67;7.88;;;10.10;93.80;;;;;;5067882;28;20438;-53
2023/11/08 06:19:12;;;;;;;54.15;8.18;;;10.10;93.80;;;;;;5085617;28;20027;-54
2023/11/08 06:21:38;;;;;;;45.47;7.30;;;10.10;93.80;;;;;;5085359;28;20024;-53
2023/11/08 06:24:04;;;;;;;61.55;8.57;;;10.10;93.90;;;;;;5085473;28;20031;-54
2023/11/08 06:26:30;;;;;;;42.58;7.38;;;10.10;93.90;;;;;;5067386;28;20044;-54
2023/11/08 06:28:55;;;;;;;50.63;7.57;;;10.10;93.90;;;;;;5085589;28;20072;-53
2023/11/08 06:31:21;;;;;;;40.22;7.63;;;10.10;93.90;;;;;;5085247;28;20025;-54
2023/11/08 06:33:47;;;;;;;64.85;7.63;;;10.10;93.90;;;;;;5067555;28;20063;-53
2023/11/08 06:36:13;;;;;;;50.22;8.35;;;10.10;93.90;;;;;;5069862;28;20037;-54
2023/11/08 06:38:39;;;;;;;49.58;8.40;;;10.10;93.90;;;;;;5089126;28;20024;-53
2023/11/08 06:41:05;;;;;;;42.47;7.05;;;10.10;93.90;;;;;;5088510;28;20028;-53
2023/11/08 06:43:31;;;;;;;32.10;7.05;;;10.10;94.00;;;;;;5088903;28;20107;-53
2023/11/08 06:45:56;;;;;;;47.78;8.20;;;10.10;94.00;;;;;;5070889;28;20103;-54
2023/11/08 06:48:22;;;;;;;45.15;8.27;;;10.10;94.10;;;;;;5088706;28;20047;-54
2023/11/08 06:50:47;;;;;;;56.97;8.05;;;10.10;94.10;;;;;;5088924;28;20416;-53
2023/11/08 06:53:13;;;;;;;46.00;7.47;;;10.10;94.10;;;;;;5088741;28;20028;-54
2023/11/08 06:55:38;;;;;;;43.45;7.50;;;10.10;94.10;;;;;;5088671;28;20084;-53
2023/11/08 06:58:05;;;;;;;43.30;7.43;;;10.10;94.10;;;;;;5088732;28;20036;-54
2023/11/08 07:00:33;;;;;;;50.30;7.32;;;10.10;94.10;;;;;;5067806;28;21438;-54
2023/11/08 07:02:58;;;;;;;36.55;7.03;;;10.10;94.20;;;;;;5080115;28;20047;-54
2023/11/08 07:05:24;;;;;;;36.50;6.38;;;10.10;94.20;;;;;;5082534;28;20024;-54
2023/11/08 07:07:50;;;;;;;43.83;7.65;;;10.10;94.20;;;;;;5085670;28;20029;-54
2023/11/08 07:10:15;;;;;;;43.25;6.72;;;10.10;94.30;;;;;;5088101;28;20088;-54
2023/11/08 07:12:41;;;;;;;36.22;6.22;;;10.10;94.30;;;;;;5088219;28;20032;-53
2023/11/08 07:15:07;;;;;;;32.58;5.55;;;10.10;94.40;;;;;;5087023;28;20039;-53
2023/11/08 07:17:37;;;;;;;37.05;5.68;;;10.10;94.40;;;;;;5069255;28;20025;-54
2023/11/08 07:20:06;;;;;;;37.35;5.97;;;10.10;94.40;;;;;;5088037;28;20028;-54
2023/11/08 07:22:32;;;;;;;36.00;5.15;;;10.10;94.40;;;;;;5088045;28;20060;-53
2023/11/08 07:24:58;;;;;;;27.33;5.80;;;10.10;94.40;;;;;;5069932;28;20027;-54
2023/11/08 07:27:23;;;;;;;35.00;5.65;;;10.00;94.40;;;;;;5087752;28;20058;-54
2023/11/08 07:29:49;;;;;;;30.88;4.85;;;10.10;94.40;;;;;;5088210;28;20052;-54
2023/11/08 07:32:15;;;;;;;42.80;5.57;;;10.10;94.40;;;;;;5087989;28;20123;-54
2023/11/08 07:34:43;;;;;;;34.70;5.90;;;10.10;94.40;;;;;;5070130;28;20028;-54
2023/11/08 07:37:09;;;;;;;20.08;4.65;;;10.10;94.30;;;;;;5069959;28;20078;-54
2023/11/08 07:39:35;;;;;;;25.42;5.68;;;10.20;94.30;;;;;;5087833;28;20088;-54
2023/11/08 07:42:02;;;;;;;33.70;5.10;;;10.10;94.30;;;;;;5069724;28;20040;-53
2023/11/08 07:44:30;;;;;;;22.25;5.28;;;10.10;94.40;;;;;;5070004;28;20020;-54
2023/11/08 07:46:58;;;;;;;36.17;5.68;;;10.10;94.40;;;;;;5087563;28;20028;-54
2023/11/08 07:49:24;;;;;;;42.28;6.53;;;10.10;94.40;;;;;;5087639;28;20025;-53
2023/11/08 07:51:51;;;;;;;33.35;5.70;;;10.10;94.40;;;;;;5087524;28;20108;-53
2023/11/08 07:54:17;;;;;;;30.15;5.45;;;10.10;94.50;;;;;;5087366;28;20028;-53
2023/11/08 07:56:43;;;;;;;31.35;5.40;;;10.10;94.50;;;;;;5087318;28;20093;-53
2023/11/08 07:59:09;;;;;;;34.65;5.28;;;10.10;94.40;;;;;;5087439;28;20016;-54
2023/11/08 08:01:35;;;;;;;30.80;5.82;;;10.10;94.40;;;;;;5069401;28;20439;-53
2023/11/08 08:04:00;;;;;;;32.92;4.95;;;10.10;94.40;;;;;;5087324;28;20029;-54
2023/11/08 08:06:29;;;;;;;32.67;5.35;;;10.10;94.40;;;;;;5087253;28;20020;-54
2023/11/08 08:08:57;;;;;;;24.65;4.68;;;10.10;94.40;;;;;;5069380;28;20107;-53
2023/11/08 08:11:22;;;;;;;18.85;4.53;;;10.10;94.30;;;;;;5087184;28;20451;-53
2023/11/08 08:13:48;;;;;;;39.95;4.97;;;10.10;94.30;;;;;;5069000;28;20025;-53
2023/11/08 08:16:15;;;;;;;35.42;5.88;;;10.10;94.30;;;;;;5069140;28;20028;-54
2023/11/08 08:18:45;;;;;;;33.75;5.07;;;10.20;94.30;;;;;;5087118;28;20029;-54
2023/11/08 08:21:11;;;;;;;35.83;6.10;;;10.20;94.30;;;;;;5069460;28;20492;-53
2023/11/08 08:23:37;;;;;;;33.75;5.40;;;10.20;94.30;;;;;;5086997;28;20029;-54
2023/11/08 08:26:02;;;;;;;28.67;4.40;;;10.20;94.30;;;;;;5087032;28;20039;-54
2023/11/08 08:28:34;;;;;;;30.48;4.10;;;10.20;94.30;;;;;;5060486;28;20021;-53
2023/11/08 08:31:00;;;;;;;25.38;5.38;;;10.20;94.30;;;;;;5067991;28;20036;-53
2023/11/08 08:33:26;;;;;;;33.22;4.50;;;10.20;94.30;;;;;;5073339;28;20088;-54
2023/11/08 08:35:51;;;;;;;23.55;4.50;;;10.20;94.60;;;;;;5086321;28;20024;-54
2023/11/08 08:38:17;;;;;;;30.23;4.95;;;10.30;94.30;;;;;;5082727;28;20029;-54
2023/11/08 08:40:42;;;;;;;27.15;4.72;;;10.20;94.30;;;;;;5079624;28;20047;-54
2023/11/08 08:43:08;;;;;;;31.10;4.47;;;10.20;94.30;;;;;;5070238;28;20036;-54
2023/11/08 08:45:33;;;;;;;29.27;4.22;;;10.20;94.30;;;;;;5070242;28;20021;-53
2023/11/08 08:48:00;;;;;;;33.67;4.80;;;10.20;94.20;;;;;;5082357;28;20082;-54
2023/11/08 08:50:25;;;;;;;37.85;5.32;;;10.20;94.20;;;;;;5076064;28;20055;-53
2023/11/08 08:52:51;;;;;;;26.75;5.35;;;10.20;94.20;;;;;;5067110;28;20469;-54
2023/11/08 08:55:18;;;;;;;41.83;5.65;;;10.20;94.20;;;;;;5072798;28;20031;-54
2023/11/08 08:57:45;;;;;;;29.13;5.60;;;10.30;94.30;;;;;;5083397;28;20036;-54
2023/11/08 09:00:11;;;;;;;28.10;4.78;;;10.30;94.20;;;;;;5082175;28;20070;-54
2023/11/08 09:02:37;;;;;;;26.25;5.15;;;10.30;94.20;;;;;;5075185;28;20055;-54
2023/11/08 09:05:05;;;;;;;41.90;6.10;;;10.30;94.20;;;;;;5078158;28;20028;-54
2023/11/08 09:07:31;;;;;;;46.05;7.22;;;10.30;94.20;;;;;;5086465;28;20036;-53
2023/11/08 09:09:57;;;;;;;45.75;7.63;;;10.30;94.20;;;;;;5083169;28;20036;-54
2023/11/08 09:12:23;;;;;;;59.63;8.13;;;10.30;94.30;;;;;;5081982;28;20029;-53
2023/11/08 09:14:52;;;;;;;87.80;10.73;;;10.30;94.30;;;;;;5080219;28;20033;-53
2023/11/08 09:17:19;;;;;;;166.95;18.85;;;10.30;94.40;;;;;;5071717;28;20025;-53
2023/11/08 09:19:45;;;;;;;85.90;9.70;;;10.30;94.40;;;;;;5071602;28;20043;-54
2023/11/08 09:22:11;;;;;;;98.53;12.73;;;10.40;94.40;;;;;;5060937;28;20033;-52
2023/11/08 09:24:37;;;;;;;54.78;9.98;;;10.40;94.40;;;;;;5081844;28;20029;-53
2023/11/08 09:27:02;;;;;;;58.75;8.10;;;10.40;94.30;;;;;;5085694;28;20029;-53
2023/11/08 09:29:29;;;;;;;62.53;8.65;;;10.40;94.30;;;;;;5083838;28;20025;-53
2023/11/08 09:31:56;;;;;;;47.50;7.40;;;10.40;94.30;;;;;;5089633;28;20036;-53
2023/11/08 09:34:22;;;;;;;68.20;8.25;;;10.40;94.10;;;;;;5079452;28;20028;-54
2023/11/08 09:36:49;;;;;;;54.65;8.95;;;10.40;94.10;;;;;;5084140;28;20032;-54
2023/11/08 09:39:16;;;;;;;56.22;8.02;;;10.40;94.10;;;;;;5085058;28;20129;-53
2023/11/08 09:41:42;;;;;;;51.88;7.43;;;10.40;94.10;;;;;;5074593;28;20052;-53
2023/11/08 09:44:08;;;;;;;38.38;7.63;;;10.50;94.10;;;;;;5065373;28;20085;-54
2023/11/08 09:46:33;;;;;;;43.88;7.97;;;10.40;94.00;;;;;;5064278;28;20029;-53
2023/11/08 09:48:59;;;;;;;61.88;7.72;;;10.40;94.00;;;;;;5047726;28;20024;-53
2023/11/08 09:51:25;;;;;;;40.13;7.38;;;10.40;93.90;;;;;;5046258;28;20032;-53
2023/11/08 09:53:51;;;;;;;50.17;7.72;;;10.50;93.80;;;;;;5064713;28;20033;-54
2023/11/08 09:56:17;;;;;;;30.02;6.07;;;10.50;93.80;;;;;;5065768;28;20017;-54
2023/11/08 09:58:45;;;;;;;46.58;7.07;;;10.50;93.70;;;;;;5078606;28;20056;-54
2023/11/08 10:01:17;;;;;;;29.05;5.38;;;10.50;93.70;;;;;;5057902;28;20033;-54
2023/11/08 10:03:43;;;;;;;36.03;5.47;;;10.50;93.60;;;;;;5071433;28;20452;-53
2023/11/08 10:06:09;;;;;;;31.42;5.03;;;10.50;93.50;;;;;;5079636;28;20047;-53
2023/11/08 10:08:35;;;;;;;35.15;6.03;;;10.50;93.50;;;;;;5065770;28;20028;-53
2023/11/08 10:11:01;;;;;;;41.20;5.43;;;10.50;93.60;;;;;;5071571;28;20095;-54
2023/11/08 10:13:48;;;;;;;20.08;4.13;;;10.50;93.60;;;;;;5079844;28;20465;-54
2023/11/08 10:16:15;;;;;;;26.98;4.65;;;10.50;93.50;;;;;;5084936;28;20052;-54
2023/11/08 10:18:42;;;;;;;24.20;4.60;;;10.50;93.40;;;;;;5070727;28;20048;-53
2023/11/08 10:21:16;;;;;;;14.52;3.80;;;10.50;93.30;;;;;;5050580;28;20078;-54
2023/11/08 10:23:41;;;;;;;28.13;4.80;;;10.50;93.20;;;;;;5081894;28;20036;-53
2023/11/08 10:26:14;;;;;;;17.35;3.65;;;10.60;93.30;;;;;;5067808;28;20115;-54
2023/11/08 10:29:03;;;;;;;19.13;4.75;;;10.50;93.20;;;;;;5060533;28;20470;-54
2023/11/08 10:31:33;;;;;;;28.75;4.68;;;10.50;93.10;;;;;;5069337;28;20060;-53
2023/11/08 10:34:00;;;;;;;36.05;4.95;;;10.50;93.00;;;;;;5070506;28;20036;-53
2023/11/08 10:36:26;;;;;;;25.63;5.07;;;10.60;93.00;;;;;;5085397;28;20115;-53
2023/11/08 10:38:51;;;;;;;44.08;7.03;;;10.60;93.00;;;;;;5078651;28;20059;-53
2023/11/08 10:41:17;;;;;;;31.98;6.85;;;10.60;93.00;;;;;;5087995;28;20024;-53
2023/11/08 10:43:46;;;;;;;64.35;9.00;;;10.60;93.10;;;;;;5097442;28;20032;-54
2023/11/08 10:46:11;;;;;;;38.63;6.22;;;10.60;93.10;;;;;;5083878;28;20029;-54
2023/11/08 10:48:37;;;;;;;70.82;8.00;;;10.70;93.10;;;;;;5080768;28;20033;-54
2023/11/08 10:51:06;;;;;;;40.83;7.60;;;10.70;93.00;;;;;;5082608;28;20028;-54
2023/11/08 10:53:32;;;;;;;33.42;6.50;;;10.60;93.10;;;;;;5079014;28;20036;-54
2023/11/08 10:56:01;;;;;;;39.88;7.30;;;10.70;93.00;;;;;;5069781;28;20025;-53
2023/11/08 10:58:33;;;;;;;47.55;8.05;;;10.70;93.00;;;;;;5087436;28;20032;-54
2023/11/08 11:01:01;;;;;;;27.33;5.85;;;10.70;93.00;;;;;;5074539;28;20060;-54
2023/11/08 11:03:27;;;;;;;42.03;6.65;;;10.70;92.90;;;;;;5068604;28;20033;-54
2023/11/08 11:05:53;;;;;;;62.70;8.30;;;10.70;92.90;;;;;;5050485;28;20071;-53
2023/11/08 11:08:19;;;;;;;61.53;9.15;;;10.70;92.90;;;;;;5068184;28;20040;-54
2023/11/08 11:10:44;;;;;;;79.90;9.10;;;10.70;92.90;;;;;;5054166;28;20035;-53
2023/11/08 11:13:12;;;;;;;61.42;7.95;;;10.70;92.80;;;;;;5068484;28;20029;-54
2023/11/08 11:15:59;;;;;;;61.03;8.65;;;10.80;92.90;;;;;;5068028;28;20033;-54
2023/11/08 11:18:34;;;;;;;86.28;10.05;;;10.70;92.80;;;;;;5068208;28;20037;-54
2023/11/08 11:21:16;;;;;;;59.17;8.00;;;10.70;92.80;;;;;;5049847;28;20044;-54
2023/11/08 11:23:41;;;;;;;60.05;7.95;;;10.80;92.80;;;;;;5061102;28;20099;-53
2023/11/08 11:26:10;;;;;;;65.38;7.53;;;10.80;92.70;;;;;;5067731;28;20421;-54
2023/11/08 11:28:52;;;;;;;59.67;9.55;;;10.80;92.70;;;;;;5067785;28;20420;-54
2023/11/08 11:31:43;;;;;;;70.55;10.00;;;10.80;92.70;;;;;;5057460;28;20021;-54
2023/11/08 11:34:30;;;;;;;66.10;8.82;;;10.80;92.70;;;;;;5070108;28;20082;-54
2023/11/08 11:37:02;;;;;;;94.10;10.57;;;10.80;92.70;;;;;;5071604;28;20036;-53
2023/11/08 11:39:31;;;;;;;65.03;8.80;;;10.90;92.80;;;;;;5084355;28;20391;-53
2023/11/08 11:42:06;;;;;;;74.00;9.50;;;10.80;92.80;;;;;;5087621;28;20028;-54
2023/11/08 11:44:38;;;;;;;77.32;10.45;;;10.90;92.80;;;;;;5069710;28;20024;-54
2023/11/08 11:47:08;;;;;;;77.90;11.32;;;10.90;92.70;;;;;;5087589;28;20024;-54
2023/11/08 11:49:37;;;;;;;96.97;12.13;;;10.90;92.70;;;;;;5086912;28;20036;-54
2023/11/08 11:52:03;;;;;;;118.85;14.95;;;10.90;92.70;;;;;;5086918;28;20028;-54
2023/11/08 11:54:29;;;;;;;112.45;15.48;;;10.90;92.80;;;;;;5069334;28;20078;-53
2023/11/08 11:56:54;;;;;;;109.50;13.32;;;10.90;92.80;;;;;;5087104;28;20033;-54
2023/11/08 11:59:23;;;;;;;114.28;14.95;;;10.90;92.80;;;;;;5087041;28;20028;-54
2023/11/08 12:01:51;;;;;;;143.68;16.52;;;10.90;92.90;;;;;;5087179;28;20097;-54
2023/11/08 12:04:21;;;;;;;125.18;17.75;;;11.00;92.90;;;;;;5052688;28;20095;-53
2023/11/08 12:06:46;;;;;;;113.85;15.60;;;11.00;92.90;;;;;;5084972;28;20040;-54
2023/11/08 12:09:13;;;;;;;106.38;13.90;;;11.00;92.80;;;;;;5094466;28;20028;-54
2023/11/08 12:11:46;;;;;;;101.18;14.15;;;11.00;92.70;;;;;;5107203;28;20013;-53
2023/11/08 12:14:11;;;;;;;90.85;12.23;;;11.00;92.60;;;;;;5090577;28;20035;-54
2023/11/08 12:16:38;;;;;;;84.22;11.77;;;11.00;92.60;;;;;;5085500;28;20028;-53
2023/11/08 12:19:04;;;;;;;151.70;18.42;;;11.00;92.50;;;;;;5086954;28;20104;-54
2023/11/08 12:21:30;;;;;;;128.52;17.17;;;11.00;92.40;;;;;;5058030;28;20074;-54
2023/11/08 12:23:55;;;;;;;122.47;15.63;;;11.00;92.50;;;;;;5061058;28;20016;-54
2023/11/08 12:26:21;;;;;;;171.00;18.85;;;11.00;92.60;;;;;;5042011;28;20029;-53
2023/11/08 12:28:46;;;;;;;138.93;17.08;;;11.00;92.60;;;;;;5078453;28;20438;-54
2023/11/08 12:31:14;;;;;;;146.57;17.42;;;11.10;92.70;;;;;;5062268;28;20028;-52
2023/11/08 12:33:40;;;;;;;119.45;16.17;;;11.10;92.60;;;;;;5048288;28;20033;-54